createdAt,value
2023-04-16T00:00:21.968Z,101622.00
2023-04-16T00:02:47.765Z,101614.50
2023-04-16T00:05:14.129Z,101623.66
2023-04-16T00:07:40.296Z,101626.69
2023-04-16T00:10:06.661Z,101623.94
2023-04-16T00:12:32.387Z,101621.16
2023-04-16T00:14:58.326Z,101628.34
2023-04-16T00:17:24.243Z,101630.00
2023-04-16T00:19:49.930Z,101629.19
2023-04-16T00:22:15.631Z,101625.59
2023-04-16T00:24:41.412Z,101622.81
2023-04-16T00:27:07.086Z,101624.47
2023-04-16T00:29:33.959Z,101622.81
2023-04-16T00:31:59.997Z,101622.81
2023-04-16T00:34:25.681Z,101615.34
2023-04-16T00:36:51.331Z,101629.19
2023-04-16T00:39:16.964Z,101626.41
2023-04-16T00:41:43.229Z,101623.66
2023-04-16T00:44:08.981Z,101628.34
2023-04-16T00:46:34.765Z,101627.53
2023-04-16T00:49:01.974Z,101626.41
2023-04-16T00:51:27.678Z,101628.34
2023-04-16T00:53:53.708Z,101625.59
2023-04-16T00:56:20.569Z,101633.06
2023-04-16T00:58:46.434Z,101628.34
2023-04-16T01:01:13.588Z,101631.94
2023-04-16T01:03:42.800Z,101631.94
2023-04-16T01:06:08.824Z,101626.41
2023-04-16T01:08:34.769Z,101631.94
2023-04-16T01:11:00.625Z,101633.91
2023-04-16T01:13:26.266Z,101636.66
2023-04-16T01:15:51.961Z,101641.38
2023-04-16T01:18:18.937Z,101636.66
2023-04-16T01:20:45.447Z,101642.19
2023-04-16T01:23:11.114Z,101638.59
2023-04-16T01:25:37.277Z,101634.72
2023-04-16T01:28:02.990Z,101646.91
2023-04-16T01:30:28.670Z,101643.84
2023-04-16T01:32:54.383Z,101646.63
2023-04-16T01:35:20.105Z,101636.38
2023-04-16T01:37:45.979Z,101640.25
2023-04-16T01:40:11.745Z,101641.09
2023-04-16T01:42:37.788Z,101646.63
2023-04-16T01:45:04.403Z,101643.84
2023-04-16T01:47:30.205Z,101650.50
2023-04-16T01:49:56.037Z,101639.97
2023-04-16T01:52:21.727Z,101648.28
2023-04-16T01:54:47.388Z,101647.44
2023-04-16T01:57:13.041Z,101644.69
2023-04-16T01:59:39.062Z,101637.19
2023-04-16T02:02:10.171Z,101648.28
2023-04-16T02:04:37.553Z,101643.84
2023-04-16T02:07:04.485Z,101647.44
2023-04-16T02:09:30.603Z,101645.50
2023-04-16T02:11:56.262Z,101643.84
2023-04-16T02:14:24.704Z,101644.69
2023-04-16T02:16:51.211Z,101643.84
2023-04-16T02:19:17.325Z,101648.56
2023-04-16T02:21:42.963Z,101641.91
2023-04-16T02:24:08.597Z,101644.69
2023-04-16T02:26:34.269Z,101643.56
2023-04-16T02:29:00.567Z,101649.09
2023-04-16T02:31:27.656Z,101645.50
2023-04-16T02:33:53.722Z,101639.97
2023-04-16T02:36:19.500Z,101639.97
2023-04-16T02:38:45.354Z,101641.09
2023-04-16T02:41:11.039Z,101640.78
2023-04-16T02:43:36.683Z,101640.78
2023-04-16T02:46:02.439Z,101645.50
2023-04-16T02:48:28.114Z,101641.09
2023-04-16T02:50:53.761Z,101647.19
2023-04-16T02:53:19.489Z,101642.75
2023-04-16T02:55:54.054Z,101637.19
2023-04-16T02:58:21.675Z,101649.09
2023-04-16T03:00:47.462Z,101646.34
2023-04-16T03:03:13.639Z,101646.34
2023-04-16T03:05:40.287Z,101648.28
2023-04-16T03:08:06.627Z,101642.47
2023-04-16T03:10:32.351Z,101646.34
2023-04-16T03:12:58.165Z,101652.72
2023-04-16T03:15:24.449Z,101651.03
2023-04-16T03:17:50.435Z,101656.56
2023-04-16T03:20:17.067Z,101652.97
2023-04-16T03:22:42.735Z,101662.13
2023-04-16T03:25:08.490Z,101658.25
2023-04-16T03:27:34.464Z,101662.13
2023-04-16T03:30:00.386Z,101659.34
2023-04-16T03:32:26.156Z,101656.56
2023-04-16T03:34:51.860Z,101651.88
2023-04-16T03:37:17.546Z,101657.41
2023-04-16T03:39:43.240Z,101664.88
2023-04-16T03:42:08.894Z,101661.03
2023-04-16T03:44:34.618Z,101656.31
2023-04-16T03:47:00.381Z,101659.09
2023-04-16T03:49:26.080Z,101661.88
2023-04-16T03:51:51.824Z,101668.22
2023-04-16T03:54:17.483Z,101671.00
2023-04-16T03:56:43.294Z,101674.88
2023-04-16T03:59:09.777Z,101673.75
2023-04-16T04:01:35.671Z,101664.06
2023-04-16T04:04:01.504Z,101662.94
2023-04-16T04:06:27.247Z,101664.88
2023-04-16T04:08:53.180Z,101668.47
2023-04-16T04:11:19.070Z,101672.09
2023-04-16T04:13:44.925Z,101672.94
2023-04-16T04:16:10.736Z,101671.00
2023-04-16T04:18:36.452Z,101675.41
2023-04-16T04:21:09.589Z,101672.66
2023-04-16T04:23:35.541Z,101668.22
2023-04-16T04:26:04.586Z,101675.69
2023-04-16T04:28:31.013Z,101669.06
2023-04-16T04:30:57.658Z,101673.75
2023-04-16T04:33:23.876Z,101674.59
2023-04-16T04:35:49.687Z,101678.47
2023-04-16T04:38:18.957Z,101673.75
2023-04-16T04:40:45.226Z,101680.41
2023-04-16T04:43:10.869Z,101685.66
2023-04-16T04:45:36.653Z,101693.69
2023-04-16T04:48:02.352Z,101690.09
2023-04-16T04:50:28.017Z,101697.56
2023-04-16T04:52:53.672Z,101692.31
2023-04-16T04:55:19.669Z,101683.19
2023-04-16T04:57:45.543Z,101690.38
2023-04-16T05:00:11.348Z,101693.13
2023-04-16T05:02:37.707Z,101693.97
2023-04-16T05:05:04.394Z,101693.13
2023-04-16T05:07:30.204Z,101699.50
2023-04-16T05:09:55.845Z,101694.78
2023-04-16T05:12:21.523Z,101700.31
2023-04-16T05:14:47.188Z,101700.31
2023-04-16T05:17:12.972Z,101705.03
2023-04-16T05:19:38.598Z,101710.56
2023-04-16T05:22:04.382Z,101705.88
2023-04-16T05:24:30.037Z,101708.63
2023-04-16T05:26:56.405Z,101712.50
2023-04-16T05:29:22.042Z,101715.28
2023-04-16T05:31:47.746Z,101718.06
2023-04-16T05:34:13.382Z,101716.94
2023-04-16T05:36:39.025Z,101720.81
2023-04-16T05:39:05.176Z,101724.13
2023-04-16T05:41:30.826Z,101732.72
2023-04-16T05:43:56.468Z,101731.88
2023-04-16T05:46:22.181Z,101727.19
2023-04-16T05:48:47.868Z,101733.53
2023-04-16T05:51:13.557Z,101733.53
2023-04-16T05:53:39.194Z,101737.16
2023-04-16T05:56:05.145Z,101729.94
2023-04-16T05:58:30.859Z,101734.38
2023-04-16T06:00:56.644Z,101744.63
2023-04-16T06:03:22.345Z,101745.44
2023-04-16T06:05:48.094Z,101748.22
2023-04-16T06:08:13.817Z,101754.31
2023-04-16T06:10:39.533Z,101755.69
2023-04-16T06:13:05.198Z,101752.91
2023-04-16T06:15:30.828Z,101760.13
2023-04-16T06:17:58.050Z,101757.34
2023-04-16T06:20:25.314Z,101752.91
2023-04-16T06:22:50.981Z,101765.66
2023-04-16T06:25:18.247Z,101764.81
2023-04-16T06:27:43.949Z,101768.41
2023-04-16T06:30:12.313Z,101766.47
2023-04-16T06:32:37.930Z,101769.53
2023-04-16T06:35:04.028Z,101775.91
2023-04-16T06:37:29.697Z,101775.91
2023-04-16T06:39:55.341Z,101775.66
2023-04-16T06:42:21.046Z,101778.66
2023-04-16T06:44:47.086Z,101781.19
2023-04-16T06:47:12.730Z,101780.59
2023-04-16T06:49:39.102Z,101780.31
2023-04-16T06:52:05.914Z,101783.94
2023-04-16T06:54:31.811Z,101778.66
2023-04-16T06:56:57.464Z,101794.16
2023-04-16T06:59:23.109Z,101793.34
2023-04-16T07:01:48.829Z,101791.16
2023-04-16T07:04:14.621Z,101791.41
2023-04-16T07:06:40.403Z,101796.94
2023-04-16T07:09:06.050Z,101795.84
2023-04-16T07:11:31.727Z,101800.56
2023-04-16T07:13:58.151Z,101805.22
2023-04-16T07:16:23.875Z,101800.56
2023-04-16T07:18:49.550Z,101805.22
2023-04-16T07:21:15.238Z,101796.94
2023-04-16T07:23:40.950Z,101798.03
2023-04-16T07:26:06.599Z,101805.22
2023-04-16T07:28:32.297Z,101801.63
2023-04-16T07:30:57.985Z,101802.22
2023-04-16T07:33:23.833Z,101807.75
2023-04-16T07:35:50.377Z,101801.38
2023-04-16T07:38:16.016Z,101808.88
2023-04-16T07:40:41.666Z,101808.00
2023-04-16T07:43:07.367Z,101806.94
2023-04-16T07:45:33.033Z,101803.31
2023-04-16T07:47:58.711Z,101809.69
2023-04-16T07:50:24.670Z,101818.81
2023-04-16T07:52:50.309Z,101815.47
2023-04-16T07:55:16.033Z,101819.94
2023-04-16T07:57:41.691Z,101826.31
2023-04-16T08:00:08.398Z,101823.53
2023-04-16T08:02:34.161Z,101827.13
2023-04-16T08:05:00.000Z,101827.13
2023-04-16T08:07:25.710Z,101826.31
2023-04-16T08:09:51.895Z,101831.84
2023-04-16T08:12:17.672Z,101835.69
2023-04-16T08:14:44.676Z,101831.84
2023-04-16T08:17:12.081Z,101831.56
2023-04-16T08:19:37.720Z,101842.09
2023-04-16T08:22:03.379Z,101845.69
2023-04-16T08:24:29.022Z,101846.50
2023-04-16T08:26:56.998Z,101854.00
2023-04-16T08:29:25.998Z,101851.22
2023-04-16T08:31:52.826Z,101848.44
2023-04-16T08:34:18.807Z,101850.09
2023-04-16T08:36:45.263Z,101852.88
2023-04-16T08:39:11.105Z,101854.81
2023-04-16T08:41:40.413Z,101863.94
2023-04-16T08:44:08.192Z,101871.44
2023-04-16T08:46:36.886Z,101864.22
2023-04-16T08:49:06.004Z,101874.19
2023-04-16T08:51:34.322Z,101881.66
2023-04-16T08:54:03.464Z,101877.78
2023-04-16T08:56:30.579Z,101879.72
2023-04-16T08:58:57.585Z,101875.03
2023-04-16T09:01:26.033Z,101880.56
2023-04-16T09:03:51.877Z,101880.56
2023-04-16T09:06:17.650Z,101881.38
2023-04-16T09:08:44.546Z,101887.75
2023-04-16T09:11:10.514Z,101879.72
2023-04-16T09:13:36.911Z,101875.84
2023-04-16T09:16:03.314Z,101873.09
2023-04-16T09:18:30.084Z,101880.56
2023-04-16T09:20:56.359Z,101877.78
2023-04-16T09:23:22.103Z,101878.91
2023-04-16T09:25:47.763Z,101881.66
2023-04-16T09:28:41.099Z,101884.16
2023-04-16T09:31:14.012Z,101880.56
2023-04-16T09:33:39.896Z,101876.97
2023-04-16T09:36:06.527Z,101884.44
2023-04-16T09:38:48.703Z,101885.00
2023-04-16T09:41:15.840Z,101880.56
2023-04-16T09:43:56.523Z,101890.53
2023-04-16T09:46:23.582Z,101890.53
2023-04-16T09:48:49.329Z,101894.13
2023-04-16T09:51:15.191Z,101894.41
2023-04-16T09:53:40.834Z,101889.69
2023-04-16T09:56:06.679Z,101885.00
2023-04-16T09:58:35.427Z,101894.94
2023-04-16T10:01:04.632Z,101887.75
2023-04-16T10:03:32.035Z,101896.06
2023-04-16T10:06:07.294Z,101893.28
2023-04-16T10:08:32.935Z,101886.09
2023-04-16T10:10:58.833Z,101900.50
2023-04-16T10:13:27.074Z,101898.84
2023-04-16T10:15:55.234Z,101898.00
2023-04-16T10:18:21.390Z,101898.00
2023-04-16T10:20:47.398Z,101900.50
2023-04-16T10:23:13.488Z,101902.44
2023-04-16T10:25:39.788Z,101897.72
2023-04-16T10:28:06.355Z,101900.50
2023-04-16T10:30:32.806Z,101899.66
2023-04-16T10:33:00.547Z,101904.38
2023-04-16T10:35:26.437Z,101898.84
2023-04-16T10:38:27.497Z,101902.72
2023-04-16T10:41:08.784Z,101898.00
2023-04-16T10:43:50.834Z,101892.47
2023-04-16T10:48:55.272Z,101891.63
2023-04-16T10:51:31.747Z,101896.88
2023-04-16T10:54:03.363Z,101894.13
2023-04-16T10:56:32.070Z,101896.06
2023-04-16T10:58:57.985Z,101891.34
2023-04-16T11:01:44.176Z,101886.66
2023-04-16T11:04:26.374Z,101891.63
2023-04-16T11:07:20.059Z,101884.16
2023-04-16T11:09:51.301Z,101886.09
2023-04-16T11:12:18.936Z,101891.34
2023-04-16T11:14:47.825Z,101889.41
2023-04-16T11:17:13.457Z,101892.47
2023-04-16T11:19:39.129Z,101887.75
2023-04-16T11:22:04.984Z,101891.09
2023-04-16T11:24:31.477Z,101895.78
2023-04-16T11:26:57.132Z,101892.19
2023-04-16T11:29:22.796Z,101893.88
2023-04-16T11:31:50.972Z,101888.59
2023-04-16T11:34:17.584Z,101885.81
2023-04-16T11:36:43.948Z,101885.81
2023-04-16T11:39:09.823Z,101894.13
2023-04-16T11:41:43.027Z,101894.72
2023-04-16T11:44:17.425Z,101890.25
2023-04-16T11:46:43.130Z,101893.88
2023-04-16T11:49:09.410Z,101893.88
2023-04-16T11:51:40.754Z,101893.88
2023-04-16T11:54:08.451Z,101896.66
2023-04-16T11:56:37.201Z,101893.88
2023-04-16T11:59:12.219Z,101894.94
2023-04-16T12:01:39.364Z,101890.25
2023-04-16T12:04:05.527Z,101897.47
2023-04-16T12:06:31.981Z,101894.94
2023-04-16T12:08:58.533Z,101894.94
2023-04-16T12:11:44.253Z,101901.31
2023-04-16T12:14:11.137Z,101905.19
2023-04-16T12:16:37.092Z,101903.00
2023-04-16T12:19:03.627Z,101906.59
2023-04-16T12:21:38.647Z,101912.38
2023-04-16T12:24:06.053Z,101911.31
2023-04-16T12:26:48.059Z,101909.63
2023-04-16T12:29:20.788Z,101905.78
2023-04-16T12:31:47.593Z,101906.03
2023-04-16T12:34:14.531Z,101909.38
2023-04-16T12:36:41.126Z,101911.31
2023-04-16T12:39:07.453Z,101913.25
2023-04-16T12:41:36.326Z,101905.78
2023-04-16T12:44:06.178Z,101905.78
2023-04-16T12:46:31.885Z,101907.72
2023-04-16T12:48:57.563Z,101911.31
2023-04-16T12:51:23.370Z,101904.94
2023-04-16T12:53:49.200Z,101898.31
2023-04-16T12:56:15.924Z,101904.09
2023-04-16T12:58:41.572Z,101910.47
2023-04-16T13:01:07.262Z,101906.59
2023-04-16T13:03:35.464Z,101905.78
2023-04-16T13:06:01.598Z,101899.41
2023-04-16T13:08:27.808Z,101905.78
2023-04-16T13:10:53.459Z,101898.56
2023-04-16T13:13:19.097Z,101907.72
2023-04-16T13:15:44.780Z,101894.72
2023-04-16T13:18:10.435Z,101897.47
2023-04-16T13:20:36.089Z,101903.00
2023-04-16T13:23:04.044Z,101900.25
2023-04-16T13:25:30.365Z,101904.66
2023-04-16T13:27:56.284Z,101905.78
2023-04-16T13:30:21.994Z,101911.03
2023-04-16T13:32:47.711Z,101904.66
2023-04-16T13:35:13.473Z,101901.06
2023-04-16T13:37:39.208Z,101890.81
2023-04-16T13:40:05.880Z,101906.31
2023-04-16T13:42:31.657Z,101903.84
2023-04-16T13:44:57.678Z,101898.31
2023-04-16T13:47:23.347Z,101900.25
2023-04-16T13:49:49.047Z,101895.78
2023-04-16T13:52:14.810Z,101899.13
2023-04-16T13:54:40.713Z,101892.75
2023-04-16T13:57:06.357Z,101901.06
2023-04-16T13:59:32.208Z,101892.75
2023-04-16T14:01:57.917Z,101890.00
2023-04-16T14:04:23.756Z,101883.63
2023-04-16T14:06:49.547Z,101888.06
2023-04-16T14:09:15.234Z,101891.38
2023-04-16T14:11:40.935Z,101895.25
2023-04-16T14:14:06.658Z,101885.84
2023-04-16T14:16:33.082Z,101892.47
2023-04-16T14:18:58.916Z,101889.72
2023-04-16T14:21:26.201Z,101886.94
2023-04-16T14:23:52.029Z,101889.72
2023-04-16T14:26:17.738Z,101896.91
2023-04-16T14:28:43.775Z,101894.72
2023-04-16T14:31:09.730Z,101892.47
2023-04-16T14:33:36.053Z,101894.44
2023-04-16T14:36:03.299Z,101894.44
2023-04-16T14:38:29.512Z,101895.25
2023-04-16T14:40:55.187Z,101896.91
2023-04-16T14:43:20.890Z,101898.03
2023-04-16T14:45:46.574Z,101896.09
2023-04-16T14:48:12.263Z,101899.97
2023-04-16T14:50:42.609Z,101896.09
2023-04-16T14:53:08.543Z,101894.16
2023-04-16T14:55:34.220Z,101896.66
2023-04-16T14:58:00.056Z,101895.84
2023-04-16T15:00:26.509Z,101893.31
2023-04-16T15:02:53.435Z,101890.81
2023-04-16T15:05:19.205Z,101887.78
2023-04-16T15:07:44.913Z,101888.59
2023-04-16T15:10:11.776Z,101885.84
2023-04-16T15:12:37.684Z,101894.16
2023-04-16T15:15:07.617Z,101891.38
2023-04-16T15:17:33.313Z,101883.94
2023-04-16T15:19:59.752Z,101886.69
2023-04-16T15:22:25.487Z,101891.13
2023-04-16T15:24:51.154Z,101878.63
2023-04-16T15:27:17.016Z,101876.69
2023-04-16T15:29:45.655Z,101880.31
2023-04-16T15:32:11.663Z,101883.94
2023-04-16T15:34:37.404Z,101892.25
2023-04-16T15:37:03.081Z,101888.59
2023-04-16T15:39:30.432Z,101890.53
2023-04-16T15:42:00.475Z,101891.38
2023-04-16T15:44:27.311Z,101895.00
2023-04-16T15:46:52.955Z,101893.91
2023-04-16T15:49:18.592Z,101899.69
2023-04-16T15:51:44.233Z,101891.97
2023-04-16T15:54:10.170Z,101903.31
2023-04-16T15:56:35.829Z,101897.78
2023-04-16T15:59:03.006Z,101901.38
2023-04-16T16:01:28.733Z,101912.44
2023-04-16T16:03:54.579Z,101908.84
2023-04-16T16:06:20.399Z,101904.38
2023-04-16T16:08:46.047Z,101909.94
2023-04-16T16:11:11.694Z,101908.00
2023-04-16T16:13:37.334Z,101907.75
2023-04-16T16:16:03.419Z,101911.34
2023-04-16T16:18:29.549Z,101907.75
2023-04-16T16:20:56.571Z,101907.47
2023-04-16T16:23:22.244Z,101906.63
2023-04-16T16:25:47.890Z,101914.09
2023-04-16T16:28:13.521Z,101915.75
2023-04-16T16:30:39.906Z,101912.44
2023-04-16T16:33:05.559Z,101923.53
2023-04-16T16:35:31.242Z,101929.59
2023-04-16T16:37:58.521Z,101932.66
2023-04-16T16:40:24.546Z,101932.66
2023-04-16T16:42:50.249Z,101928.22
2023-04-16T16:45:16.041Z,101932.38
2023-04-16T16:47:41.728Z,101935.44
2023-04-16T16:50:10.491Z,101930.72
2023-04-16T16:52:36.285Z,101936.25
2023-04-16T16:55:02.087Z,101925.19
2023-04-16T16:57:27.825Z,101933.22
2023-04-16T16:59:54.806Z,101932.38
2023-04-16T17:02:20.475Z,101938.75
2023-04-16T17:04:46.148Z,101939.56
2023-04-16T17:07:11.792Z,101941.50
2023-04-16T17:09:37.972Z,101940.69
2023-04-16T17:12:04.673Z,101937.91
2023-04-16T17:14:31.191Z,101939.56
2023-04-16T17:16:56.883Z,101936.25
2023-04-16T17:19:22.577Z,101938.75
2023-04-16T17:21:48.269Z,101945.41
2023-04-16T17:24:14.012Z,101939.84
2023-04-16T17:26:40.287Z,101947.06
2023-04-16T17:29:06.048Z,101942.91
2023-04-16T17:31:31.743Z,101941.78
2023-04-16T17:33:58.726Z,101938.75
2023-04-16T17:36:26.244Z,101941.50
2023-04-16T17:38:52.087Z,101942.34
2023-04-16T17:41:18.752Z,101943.47
2023-04-16T17:43:47.851Z,101947.06
2023-04-16T17:46:13.558Z,101949.81
2023-04-16T17:48:39.258Z,101943.47
2023-04-16T17:51:10.348Z,101945.13
2023-04-16T17:53:35.991Z,101950.94
2023-04-16T17:56:02.021Z,101957.06
2023-04-16T17:58:31.936Z,101947.34
2023-04-16T18:00:58.339Z,101949.81
2023-04-16T18:03:24.107Z,101956.19
2023-04-16T18:05:49.804Z,101955.63
2023-04-16T18:08:15.493Z,101964.50
2023-04-16T18:10:41.160Z,101966.44
2023-04-16T18:13:06.799Z,101962.59
2023-04-16T18:15:37.191Z,101960.91
2023-04-16T18:18:03.832Z,101968.38
2023-04-16T18:20:29.564Z,101966.44
2023-04-16T18:22:55.275Z,101966.44
2023-04-16T18:25:31.983Z,101967.81
2023-04-16T18:27:59.890Z,101975.56
2023-04-16T18:30:26.832Z,101971.41
2023-04-16T18:33:16.551Z,101977.50
2023-04-16T18:35:39.562Z,101971.97
2023-04-16T18:38:05.559Z,101981.97
2023-04-16T18:40:35.193Z,101976.44
2023-04-16T18:43:01.366Z,101981.97
2023-04-16T18:45:28.325Z,101976.44
2023-04-16T18:47:57.562Z,101983.03
2023-04-16T18:50:25.138Z,101987.75
2023-04-16T18:52:51.048Z,101987.75
2023-04-16T18:55:16.804Z,101991.34
2023-04-16T18:57:42.452Z,101996.88
2023-04-16T19:00:11.687Z,101990.81
2023-04-16T19:02:38.871Z,101994.94
2023-04-16T19:05:05.107Z,101988.88
2023-04-16T19:07:30.806Z,101998.59
2023-04-16T19:09:56.488Z,101999.66
2023-04-16T19:12:22.426Z,101994.94
2023-04-16T19:14:48.080Z,101996.06
2023-04-16T19:17:13.740Z,102005.19
2023-04-16T19:19:39.390Z,102006.91
2023-04-16T19:22:05.780Z,102004.97
2023-04-16T19:24:33.675Z,102013.25
2023-04-16T19:27:00.140Z,102012.44
2023-04-16T19:29:27.048Z,102016.28
2023-04-16T19:31:52.838Z,102015.44
2023-04-16T19:34:18.587Z,102015.19
2023-04-16T19:36:45.089Z,102011.84
2023-04-16T19:39:11.207Z,102020.75
2023-04-16T19:41:37.055Z,102020.75
2023-04-16T19:44:02.713Z,102020.75
2023-04-16T19:46:28.360Z,102027.34
2023-04-16T19:48:54.013Z,102034.59
2023-04-16T19:51:19.764Z,102030.94
2023-04-16T19:53:45.395Z,102026.28
2023-04-16T19:56:11.477Z,102032.88
2023-04-16T19:58:38.372Z,102034.59
2023-04-16T20:01:11.186Z,102034.59
2023-04-16T20:03:37.698Z,102035.66
2023-04-16T20:06:04.612Z,102035.66
2023-04-16T20:08:30.716Z,102044.78
2023-04-16T20:10:56.572Z,102037.34
2023-04-16T20:13:22.357Z,102029.03
2023-04-16T20:15:53.005Z,102038.44
2023-04-16T20:18:18.894Z,102042.88
2023-04-16T20:20:44.560Z,102033.72
2023-04-16T20:23:10.390Z,102038.19
2023-04-16T20:25:40.708Z,102040.13
2023-04-16T20:28:06.338Z,102038.19
2023-04-16T20:30:37.790Z,102034.59
2023-04-16T20:33:05.596Z,102046.22
2023-04-16T20:35:31.949Z,102039.25
2023-04-16T20:37:57.574Z,102032.66
2023-04-16T20:40:23.280Z,102034.59
2023-04-16T20:42:51.280Z,102036.50
2023-04-16T20:45:17.727Z,102046.50
2023-04-16T20:47:43.495Z,102027.09
2023-04-16T20:50:10.371Z,102029.88
2023-04-16T20:52:36.479Z,102029.03
2023-04-16T20:55:02.692Z,102029.03
2023-04-16T20:57:28.916Z,102030.13
2023-04-16T20:59:55.524Z,102032.38
2023-04-16T21:02:22.796Z,102040.13
2023-04-16T21:04:48.830Z,102027.94
2023-04-16T21:07:14.673Z,102029.03
2023-04-16T21:09:40.444Z,102042.88
2023-04-16T21:12:06.294Z,102029.03
2023-04-16T21:14:31.933Z,102034.59
2023-04-16T21:16:57.573Z,102036.25
2023-04-16T21:19:23.217Z,102039.00
2023-04-16T21:21:48.875Z,102040.13
2023-04-16T21:24:14.609Z,102040.13
2023-04-16T21:26:40.254Z,102036.25
2023-04-16T21:29:05.933Z,102042.63
2023-04-16T21:31:31.681Z,102042.88
2023-04-16T21:33:57.384Z,102035.41
2023-04-16T21:36:25.696Z,102037.06
2023-04-16T21:38:51.253Z,102039.84
2023-04-16T21:41:16.899Z,102036.25
2023-04-16T21:43:42.546Z,102035.41
2023-04-16T21:46:08.197Z,102029.03
2023-04-16T21:48:33.848Z,102030.69
2023-04-16T21:51:05.399Z,102029.03
2023-04-16T21:53:31.846Z,102031.53
2023-04-16T21:55:57.578Z,102021.56
2023-04-16T21:58:24.865Z,102035.41
2023-04-16T22:00:51.065Z,102042.63
2023-04-16T22:03:17.735Z,102037.91
2023-04-16T22:05:44.237Z,102031.81
2023-04-16T22:08:23.396Z,102037.91
2023-04-16T22:10:49.606Z,102033.19
2023-04-16T22:13:16.965Z,102037.06
2023-04-16T22:15:42.598Z,102033.47
2023-04-16T22:18:08.842Z,102033.47
2023-04-16T22:20:38.183Z,102044.56
2023-04-16T22:23:05.343Z,102034.31
2023-04-16T22:25:30.992Z,102031.53
2023-04-16T22:27:56.901Z,102032.38
2023-04-16T22:30:22.542Z,102031.53
2023-04-16T22:32:48.264Z,102025.16
2023-04-16T22:35:13.985Z,102027.09
2023-04-16T22:37:39.664Z,102026.00
2023-04-16T22:40:10.461Z,102022.41
2023-04-16T22:42:36.144Z,102021.28
2023-04-16T22:45:02.293Z,102020.47
2023-04-16T22:47:27.961Z,102020.47
2023-04-16T22:49:53.653Z,102021.00
2023-04-16T22:52:19.293Z,102018.53
2023-04-16T22:54:44.920Z,102024.06
2023-04-16T22:57:10.629Z,102019.63
2023-04-16T22:59:36.260Z,102024.34
2023-04-16T23:02:01.971Z,102026.81
2023-04-16T23:04:27.758Z,102020.47
2023-04-16T23:06:53.510Z,102022.13
2023-04-16T23:09:19.757Z,102026.81
2023-04-16T23:11:45.491Z,102026.00
2023-04-16T23:14:14.441Z,102022.13
2023-04-16T23:16:41.819Z,102018.53
2023-04-16T23:19:13.879Z,102023.22
2023-04-16T23:21:40.066Z,102022.94
2023-04-16T23:24:05.946Z,102016.59
2023-04-16T23:26:32.072Z,102019.34
2023-04-16T23:28:57.849Z,102024.88
2023-04-16T23:31:23.586Z,102025.72
2023-04-16T23:33:49.329Z,102016.59
2023-04-16T23:36:14.965Z,102019.63
2023-04-16T23:38:40.610Z,102014.66
2023-04-16T23:41:06.242Z,102016.59
2023-04-16T23:43:32.082Z,102017.41
2023-04-16T23:45:57.771Z,102021.56
2023-04-16T23:48:23.459Z,102018.53
2023-04-16T23:50:49.102Z,102018.53
2023-04-16T23:53:14.857Z,102015.75
2023-04-16T23:55:40.524Z,102017.41
2023-04-16T23:58:06.173Z,102015.47
